createdAt,value
2019-04-05T00:02:08.409Z,3.80
2019-04-05T00:04:36.838Z,3.80
2019-04-05T00:07:05.344Z,3.80
2019-04-05T00:09:33.803Z,3.70
2019-04-05T00:12:02.213Z,3.70
2019-04-05T00:14:30.664Z,3.80
2019-04-05T00:16:59.091Z,3.70
2019-04-05T00:19:27.538Z,3.70
2019-04-05T00:21:55.970Z,3.80
2019-04-05T00:24:24.486Z,3.60
2019-04-05T00:26:53.611Z,3.60
2019-04-05T00:29:22.044Z,3.70
2019-04-05T00:31:50.480Z,3.70
2019-04-05T00:34:18.910Z,3.70
2019-04-05T00:36:47.357Z,3.80
2019-04-05T00:39:15.849Z,3.80
2019-04-05T00:41:44.280Z,3.80
2019-04-05T00:44:12.781Z,3.80
2019-04-05T00:46:41.204Z,3.80
2019-04-05T00:49:09.668Z,3.70
2019-04-05T00:51:38.087Z,3.70
2019-04-05T00:54:06.649Z,3.70
2019-04-05T00:56:35.089Z,3.70
2019-04-05T00:59:03.539Z,3.70
2019-04-05T01:01:32.794Z,3.50
2019-04-05T01:04:02.594Z,3.60
2019-04-05T01:06:31.104Z,3.60
2019-04-05T01:08:59.605Z,3.60
2019-04-05T01:11:28.020Z,3.50
2019-04-05T01:13:58.287Z,3.60
2019-04-05T01:16:27.194Z,3.70
2019-04-05T01:18:55.614Z,3.80
2019-04-05T01:21:28.802Z,3.80
2019-04-05T01:23:59.251Z,3.90
2019-04-05T01:26:27.863Z,3.90
2019-04-05T01:28:56.389Z,3.90
2019-04-05T01:31:24.947Z,3.90
2019-04-05T01:33:53.402Z,3.90
2019-04-05T01:36:21.834Z,3.90
2019-04-05T01:38:50.325Z,3.90
2019-04-05T01:41:19.001Z,3.90
2019-04-05T01:43:47.417Z,3.90
2019-04-05T01:46:15.857Z,3.90
2019-04-05T01:48:44.275Z,4.00
2019-04-05T01:51:12.777Z,4.00
2019-04-05T01:53:41.390Z,4.00
2019-04-05T01:56:09.836Z,4.00
2019-04-05T01:58:38.257Z,3.90
2019-04-05T02:01:06.709Z,3.80
2019-04-05T02:03:35.198Z,3.80
2019-04-05T02:06:03.781Z,3.80
2019-04-05T02:08:32.227Z,3.80
2019-04-05T02:11:00.737Z,3.70
2019-04-05T02:13:29.166Z,3.70
2019-04-05T02:16:06.103Z,3.80
2019-04-05T02:18:27.766Z,3.90
2019-04-05T02:20:56.270Z,3.90
2019-04-05T02:23:24.711Z,3.90
2019-04-05T02:25:53.148Z,4.00
2019-04-05T02:28:21.575Z,4.00
2019-04-05T02:30:50.036Z,4.00
2019-04-05T02:33:18.602Z,3.90
2019-04-05T02:35:47.171Z,4.00
2019-04-05T02:38:15.586Z,4.00
2019-04-05T02:40:45.069Z,3.90
2019-04-05T02:43:16.416Z,3.90
2019-04-05T02:45:47.238Z,3.90
2019-04-05T02:48:18.122Z,4.00
2019-04-05T02:50:49.650Z,4.00
2019-04-05T02:53:19.725Z,4.00
2019-04-05T02:55:49.719Z,4.10
2019-04-05T02:58:20.251Z,4.00
2019-04-05T03:00:50.015Z,4.10
2019-04-05T03:03:18.526Z,4.10
2019-04-05T03:05:47.339Z,4.00
2019-04-05T03:08:17.159Z,4.00
2019-04-05T03:11:03.879Z,4.00
2019-04-05T03:13:35.400Z,4.00
2019-04-05T03:16:06.928Z,4.10
2019-04-05T03:18:38.436Z,4.00
2019-04-05T03:21:08.404Z,3.90
2019-04-05T03:23:39.900Z,3.80
2019-04-05T03:26:11.773Z,3.60
2019-04-05T03:28:42.980Z,3.60
2019-04-05T03:31:12.556Z,3.60
2019-04-05T03:33:41.052Z,3.70
2019-04-05T03:36:09.841Z,3.90
2019-04-05T03:38:38.730Z,3.80
2019-04-05T03:41:07.822Z,3.80
2019-04-05T03:43:36.385Z,3.60
2019-04-05T03:46:05.677Z,3.70
2019-04-05T03:48:34.475Z,3.70
2019-04-05T03:51:02.926Z,3.70
2019-04-05T03:53:31.521Z,3.70
2019-04-05T03:56:00.544Z,3.80
2019-04-05T03:58:29.587Z,3.70
2019-04-05T04:00:58.176Z,3.70
2019-04-05T04:03:27.342Z,3.60
2019-04-05T04:05:55.925Z,3.60
2019-04-05T04:08:24.490Z,3.60
2019-04-05T04:10:54.069Z,3.80
2019-04-05T04:13:23.693Z,3.80
2019-04-05T04:15:54.271Z,3.70
2019-04-05T04:18:23.663Z,3.70
2019-04-05T04:20:55.230Z,3.60
2019-04-05T04:23:26.668Z,3.70
2019-04-05T04:25:55.641Z,3.80
2019-04-05T04:28:24.326Z,3.60
2019-04-05T04:30:52.918Z,3.60
2019-04-05T04:33:21.537Z,3.60
2019-04-05T04:35:51.090Z,3.60
2019-04-05T04:38:22.938Z,3.60
2019-04-05T04:40:50.084Z,3.60
2019-04-05T04:43:18.852Z,3.60
2019-04-05T04:45:47.261Z,3.60
2019-04-05T04:48:16.853Z,3.60
2019-04-05T04:50:45.690Z,3.70
2019-04-05T04:53:14.778Z,3.70
2019-04-05T04:55:43.273Z,3.60
2019-04-05T04:58:13.290Z,3.70
2019-04-05T05:00:41.779Z,3.90
2019-04-05T05:03:10.353Z,3.80
2019-04-05T05:05:39.005Z,3.70
2019-04-05T05:08:08.021Z,3.60
2019-04-05T05:10:36.797Z,3.60
2019-04-05T05:13:05.472Z,3.60
2019-04-05T05:15:34.165Z,3.60
2019-04-05T05:18:03.039Z,3.70
2019-04-05T05:20:31.849Z,3.80
2019-04-05T05:23:03.629Z,3.70
2019-04-05T05:25:32.231Z,3.70
2019-04-05T05:28:00.873Z,3.80
2019-04-05T05:30:29.343Z,3.80
2019-04-05T05:32:58.139Z,3.90
2019-04-05T05:35:26.648Z,3.90
2019-04-05T05:37:55.244Z,3.80
2019-04-05T05:40:34.029Z,3.70
2019-04-05T05:42:53.998Z,3.60
2019-04-05T05:45:22.492Z,3.60
2019-04-05T05:47:52.329Z,3.60
2019-04-05T05:50:21.114Z,3.50
2019-04-05T05:52:50.115Z,3.50
2019-04-05T05:55:18.607Z,3.70
2019-04-05T05:57:48.689Z,3.70
2019-04-05T06:00:19.242Z,3.70
2019-04-05T06:02:48.519Z,3.50
2019-04-05T06:05:17.182Z,3.40
2019-04-05T06:07:46.333Z,3.30
2019-04-05T06:10:14.748Z,3.30
2019-04-05T06:12:43.191Z,3.30
2019-04-05T06:15:11.806Z,3.30
2019-04-05T06:17:42.527Z,3.30
2019-04-05T06:20:10.539Z,3.40
2019-04-05T06:22:39.438Z,3.50
2019-04-05T06:25:08.031Z,3.60
2019-04-05T06:27:38.566Z,3.60
2019-04-05T06:30:07.306Z,3.60
2019-04-05T06:32:35.738Z,3.60
2019-04-05T06:35:06.319Z,3.60
2019-04-05T06:37:34.745Z,3.60
2019-04-05T06:40:04.349Z,3.70
2019-04-05T06:42:35.734Z,3.80
2019-04-05T06:45:05.813Z,3.80
2019-04-05T06:47:34.248Z,3.90
2019-04-05T06:50:02.742Z,3.90
2019-04-05T06:52:31.182Z,3.90
2019-04-05T06:54:59.613Z,4.00
2019-04-05T06:57:28.037Z,4.00
2019-04-05T06:59:56.486Z,4.10
2019-04-05T07:02:25.001Z,4.10
2019-04-05T07:04:53.450Z,4.20
2019-04-05T07:07:21.870Z,4.30
2019-04-05T07:09:50.318Z,4.20
2019-04-05T07:12:20.567Z,4.30
2019-04-05T07:14:48.990Z,4.30
2019-04-05T07:17:17.425Z,4.40
2019-04-05T07:19:45.905Z,4.40
2019-04-05T07:22:14.411Z,4.50
2019-04-05T07:24:42.852Z,4.50
2019-04-05T07:27:11.277Z,4.50
2019-04-05T07:29:39.734Z,4.50
2019-04-05T07:32:08.161Z,4.60
2019-04-05T07:34:36.607Z,4.70
2019-04-05T07:37:05.099Z,4.70
2019-04-05T07:39:33.559Z,4.80
2019-04-05T07:42:01.988Z,4.90
2019-04-05T07:44:30.444Z,5.00
2019-04-05T07:46:59.149Z,4.90
2019-04-05T07:49:29.183Z,4.90
2019-04-05T07:51:57.601Z,5.00
2019-04-05T07:54:26.042Z,5.10
2019-04-05T07:56:54.463Z,5.10
2019-04-05T07:59:22.942Z,5.10
2019-04-05T08:01:51.346Z,5.20
2019-04-05T08:04:19.802Z,5.20
2019-04-05T08:06:49.374Z,5.20
2019-04-05T08:09:19.274Z,5.30
2019-04-05T08:11:48.644Z,5.40
2019-04-05T08:14:18.629Z,5.60
2019-04-05T08:16:47.057Z,5.60
2019-04-05T08:19:15.501Z,5.60
2019-04-05T08:21:43.952Z,5.70
2019-04-05T08:24:12.391Z,5.70
2019-04-05T08:26:40.834Z,5.90
2019-04-05T08:29:09.285Z,5.90
2019-04-05T08:31:37.704Z,6.00
2019-04-05T08:34:06.127Z,6.10
2019-04-05T08:36:34.551Z,6.00
2019-04-05T08:39:04.641Z,5.90
2019-04-05T08:41:33.093Z,6.00
2019-04-05T08:44:01.513Z,6.00
2019-04-05T08:46:29.942Z,6.10
2019-04-05T08:49:09.953Z,6.20
2019-04-05T08:51:28.551Z,6.20
2019-04-05T08:53:56.968Z,6.10
2019-04-05T08:56:25.414Z,6.20
2019-04-05T08:58:53.842Z,6.20
2019-04-05T09:01:22.291Z,6.30
2019-04-05T09:03:50.754Z,6.30
2019-04-05T09:06:19.207Z,6.20
2019-04-05T09:08:47.650Z,6.30
2019-04-05T09:11:16.085Z,6.40
2019-04-05T09:13:44.534Z,6.50
2019-04-05T09:16:13.046Z,6.50
2019-04-05T09:18:41.471Z,6.60
2019-04-05T09:21:10.212Z,6.70
2019-04-05T09:23:38.822Z,6.70
2019-04-05T09:26:09.549Z,6.80
2019-04-05T09:28:37.407Z,6.90
2019-04-05T09:31:05.840Z,6.80
2019-04-05T09:33:34.303Z,6.90
2019-04-05T09:36:04.741Z,7.00
2019-04-05T09:38:33.454Z,7.20
2019-04-05T09:41:01.882Z,7.20
2019-04-05T09:43:32.586Z,7.30
2019-04-05T09:46:01.037Z,7.30
2019-04-05T09:48:29.458Z,7.20
2019-04-05T09:50:57.908Z,7.50
2019-04-05T09:53:26.326Z,7.50
2019-04-05T09:55:54.831Z,7.40
2019-04-05T09:58:23.291Z,7.30
2019-04-05T10:00:51.736Z,7.30
2019-04-05T10:03:20.161Z,7.00
2019-04-05T10:05:48.607Z,7.20
2019-04-05T10:08:17.063Z,7.60
2019-04-05T10:10:45.504Z,7.70
2019-04-05T10:13:14.013Z,7.30
2019-04-05T10:15:42.472Z,7.30
2019-04-05T10:18:10.902Z,7.50
2019-04-05T10:20:39.359Z,7.70
2019-04-05T10:23:07.847Z,7.70
2019-04-05T10:25:36.376Z,7.60
2019-04-05T10:28:05.339Z,7.80
2019-04-05T10:30:33.773Z,7.20
2019-04-05T10:33:02.213Z,7.40
2019-04-05T10:35:30.643Z,7.30
2019-04-05T10:37:59.084Z,7.40
2019-04-05T10:40:27.512Z,7.50
2019-04-05T10:42:55.954Z,7.60
2019-04-05T10:45:24.443Z,7.80
2019-04-05T10:47:52.897Z,7.90
2019-04-05T10:50:21.431Z,7.60
2019-04-05T10:52:49.866Z,7.70
2019-04-05T10:55:18.295Z,8.00
2019-04-05T10:57:46.797Z,8.20
2019-04-05T11:00:17.452Z,8.20
2019-04-05T11:02:45.963Z,8.10
2019-04-05T11:05:15.052Z,7.70
2019-04-05T11:07:43.572Z,7.90
2019-04-05T11:10:12.765Z,8.20
2019-04-05T11:12:41.223Z,8.30
2019-04-05T11:15:10.296Z,8.10
2019-04-05T11:17:38.732Z,8.00
2019-04-05T11:20:21.294Z,7.90
2019-04-05T11:22:43.029Z,7.70
2019-04-05T11:25:16.078Z,7.60
2019-04-05T11:27:43.447Z,7.70
2019-04-05T11:30:12.633Z,7.90
2019-04-05T11:32:41.059Z,7.90
2019-04-05T11:35:11.569Z,8.10
2019-04-05T11:37:40.459Z,8.10
2019-04-05T11:40:09.932Z,7.80
2019-04-05T11:42:38.451Z,8.00
2019-04-05T11:45:08.919Z,8.20
2019-04-05T11:47:38.601Z,8.20
2019-04-05T11:50:09.756Z,7.90
2019-04-05T11:52:38.259Z,8.00
2019-04-05T11:55:07.834Z,8.20
2019-04-05T11:57:36.253Z,8.30
2019-04-05T12:00:14.326Z,8.10
2019-04-05T12:02:47.393Z,8.10
2019-04-05T12:05:17.395Z,8.30
2019-04-05T12:07:45.848Z,8.20
2019-04-05T12:10:14.407Z,8.40
2019-04-05T12:12:42.849Z,8.50
2019-04-05T12:15:11.415Z,8.50
2019-04-05T12:17:39.859Z,8.30
2019-04-05T12:20:08.747Z,8.50
2019-04-05T12:22:37.950Z,8.50
2019-04-05T12:25:07.354Z,8.70
2019-04-05T12:27:36.067Z,8.50
2019-04-05T12:30:06.406Z,8.50
2019-04-05T12:32:41.109Z,8.70
2019-04-05T12:35:08.462Z,8.60
2019-04-05T12:37:49.194Z,8.80
2019-04-05T12:40:11.143Z,8.70
2019-04-05T12:42:42.642Z,8.80
2019-04-05T12:45:10.180Z,8.90
2019-04-05T12:47:38.868Z,8.90
2019-04-05T12:50:09.153Z,8.90
2019-04-05T12:52:37.596Z,8.90
2019-04-05T12:55:06.858Z,8.70
2019-04-05T12:57:35.311Z,8.90
2019-04-05T13:00:13.620Z,8.80
2019-04-05T13:02:42.682Z,8.90
2019-04-05T13:05:11.349Z,8.80
2019-04-05T13:07:39.804Z,8.80
2019-04-05T13:10:08.375Z,8.70
2019-04-05T13:12:36.818Z,8.90
2019-04-05T13:15:12.932Z,8.70
2019-04-05T13:17:36.756Z,8.60
2019-04-05T13:20:07.821Z,8.80
2019-04-05T13:22:36.246Z,9.00
2019-04-05T13:25:10.757Z,9.10
2019-04-05T13:27:36.867Z,9.20
2019-04-05T13:30:07.058Z,9.00
2019-04-05T13:32:35.478Z,8.90
2019-04-05T13:35:04.658Z,8.90
2019-04-05T13:37:33.080Z,8.90
2019-04-05T13:40:01.610Z,8.90
2019-04-05T13:42:31.937Z,9.00
2019-04-05T13:45:00.197Z,8.90
2019-04-05T13:47:28.626Z,8.90
2019-04-05T13:49:57.099Z,8.80
2019-04-05T13:52:25.777Z,9.00
2019-04-05T13:54:54.233Z,8.90
2019-04-05T13:57:22.651Z,8.80
2019-04-05T13:59:51.097Z,8.80
2019-04-05T14:02:21.220Z,8.70
2019-04-05T14:04:53.616Z,8.70
2019-04-05T14:07:23.444Z,8.60
2019-04-05T14:09:50.185Z,8.70
2019-04-05T14:12:18.606Z,8.70
2019-04-05T14:14:51.012Z,8.70
2019-04-05T14:17:17.219Z,8.70
2019-04-05T14:19:48.436Z,8.80
2019-04-05T14:22:15.823Z,8.90
2019-04-05T14:24:44.274Z,9.00
2019-04-05T14:27:12.687Z,9.00
2019-04-05T14:29:41.132Z,8.80
2019-04-05T14:32:20.344Z,8.70
2019-04-05T14:34:39.730Z,8.80
2019-04-05T14:37:09.804Z,8.90
2019-04-05T14:39:38.242Z,9.00
2019-04-05T14:42:09.958Z,9.00
2019-04-05T14:44:37.599Z,8.80
2019-04-05T14:47:06.038Z,9.00
2019-04-05T14:49:34.491Z,9.00
2019-04-05T14:52:02.902Z,9.10
2019-04-05T14:54:31.329Z,9.20
2019-04-05T14:57:02.424Z,9.10
2019-04-05T14:59:32.646Z,9.00
2019-04-05T15:02:00.070Z,9.00
2019-04-05T15:04:28.493Z,9.10
2019-04-05T15:06:57.923Z,9.10
2019-04-05T15:09:26.375Z,9.10
2019-04-05T15:11:58.306Z,9.00
2019-04-05T15:14:24.980Z,9.00
2019-04-05T15:16:54.711Z,9.10
2019-04-05T15:19:23.229Z,9.00
2019-04-05T15:21:51.674Z,9.00
2019-04-05T15:24:20.126Z,9.10
2019-04-05T15:26:49.451Z,9.00
2019-04-05T15:29:18.744Z,9.00
2019-04-05T15:31:47.355Z,9.10
2019-04-05T15:34:15.805Z,9.00
2019-04-05T15:36:44.247Z,8.90
2019-04-05T15:39:12.854Z,9.00
2019-04-05T15:41:41.294Z,8.90
2019-04-05T15:44:09.732Z,8.90
2019-04-05T15:46:38.174Z,8.90
2019-04-05T15:49:06.601Z,8.80
2019-04-05T15:51:35.046Z,8.80
2019-04-05T15:54:03.474Z,8.80
2019-04-05T15:56:34.104Z,8.80
2019-04-05T15:59:04.616Z,8.70
2019-04-05T16:01:34.266Z,8.60
2019-04-05T16:04:03.442Z,8.60
2019-04-05T16:06:31.945Z,8.60
2019-04-05T16:09:00.359Z,8.60
2019-04-05T16:11:28.807Z,8.60
2019-04-05T16:13:57.233Z,8.60
2019-04-05T16:16:26.046Z,8.60
2019-04-05T16:18:54.468Z,8.60
2019-04-05T16:21:24.826Z,8.60
2019-04-05T16:23:53.247Z,8.60
2019-04-05T16:26:21.699Z,8.60
2019-04-05T16:28:50.139Z,8.60
2019-04-05T16:31:18.581Z,8.60
2019-04-05T16:33:47.004Z,8.60
2019-04-05T16:36:15.462Z,8.60
2019-04-05T16:38:43.922Z,8.60
2019-04-05T16:41:12.365Z,8.50
2019-04-05T16:43:40.908Z,8.40
2019-04-05T16:46:09.409Z,8.40
2019-04-05T16:48:37.839Z,8.40
2019-04-05T16:51:06.292Z,8.40
2019-04-05T16:53:34.735Z,8.40
2019-04-05T16:56:03.178Z,8.40
2019-04-05T16:58:31.612Z,8.40
2019-04-05T17:01:00.059Z,8.40
2019-04-05T17:03:28.502Z,8.40
2019-04-05T17:05:56.930Z,8.30
2019-04-05T17:08:25.346Z,8.30
2019-04-05T17:10:53.799Z,8.40
2019-04-05T17:13:22.286Z,8.30
2019-04-05T17:15:50.887Z,8.30
2019-04-05T17:18:19.341Z,8.30
2019-04-05T17:20:47.766Z,8.30
2019-04-05T17:23:16.214Z,8.30
2019-04-05T17:25:44.649Z,8.30
2019-04-05T17:28:13.097Z,8.30
2019-04-05T17:30:41.817Z,8.40
2019-04-05T17:33:10.529Z,8.30
2019-04-05T17:35:38.965Z,8.20
2019-04-05T17:38:07.414Z,8.30
2019-04-05T17:40:35.844Z,8.30
2019-04-05T17:43:04.291Z,8.20
2019-04-05T17:45:32.733Z,8.20
2019-04-05T17:48:01.164Z,8.20
2019-04-05T17:50:31.841Z,8.20
2019-04-05T17:53:11.472Z,8.10
2019-04-05T17:55:30.435Z,8.10
2019-04-05T17:58:00.049Z,8.10
2019-04-05T18:00:28.478Z,8.10
2019-04-05T18:02:56.926Z,8.00
2019-04-05T18:05:25.369Z,8.10
2019-04-05T18:07:53.814Z,8.00
2019-04-05T18:10:22.247Z,8.00
2019-04-05T18:12:50.711Z,8.00
2019-04-05T18:15:19.126Z,8.00
2019-04-05T18:17:47.578Z,7.90
2019-04-05T18:20:16.014Z,7.90
2019-04-05T18:22:44.515Z,7.90
2019-04-05T18:25:14.329Z,8.00
2019-04-05T18:27:43.026Z,8.00
2019-04-05T18:30:11.817Z,7.90
2019-04-05T18:32:40.272Z,7.90
2019-04-05T18:35:09.042Z,7.90
2019-04-05T18:37:37.484Z,7.90
2019-04-05T18:40:08.752Z,7.90
2019-04-05T18:42:37.201Z,7.90
2019-04-05T18:45:08.471Z,7.90
2019-04-05T18:47:36.916Z,7.80
2019-04-05T18:50:07.081Z,7.80
2019-04-05T18:52:35.790Z,7.70
2019-04-05T18:55:06.917Z,7.80
2019-04-05T18:57:35.362Z,7.80
2019-04-05T19:00:06.330Z,7.80
2019-04-05T19:02:34.857Z,7.80
2019-04-05T19:05:04.218Z,7.70
2019-04-05T19:07:32.661Z,7.70
2019-04-05T19:10:01.104Z,7.70
2019-04-05T19:12:29.583Z,7.70
2019-04-05T19:14:58.058Z,7.60
2019-04-05T19:17:26.506Z,7.70
2019-04-05T19:19:54.919Z,7.60
2019-04-05T19:22:23.376Z,7.60
2019-04-05T19:24:52.084Z,7.60
2019-04-05T19:27:20.538Z,7.60
2019-04-05T19:29:49.260Z,7.50
2019-04-05T19:49:49.163Z,7.20
2019-04-05T19:52:17.590Z,7.10
2019-04-05T19:54:46.032Z,7.10
2019-04-05T19:57:14.467Z,7.10
2019-04-05T19:59:43.632Z,7.00
2019-04-05T20:02:12.099Z,7.00
2019-04-05T20:04:40.663Z,7.00
2019-04-05T20:07:09.093Z,7.00
2019-04-05T20:09:37.524Z,7.10
2019-04-05T20:12:06.016Z,7.00
2019-04-05T20:14:53.839Z,7.00
2019-04-05T20:17:22.366Z,7.00
2019-04-05T20:19:50.863Z,7.00
2019-04-05T20:22:19.277Z,6.90
2019-04-05T20:24:49.950Z,7.00
2019-04-05T20:27:18.394Z,6.90
2019-04-05T20:29:46.847Z,6.90
2019-04-05T20:32:15.267Z,6.90
2019-04-05T20:34:43.731Z,6.80
2019-04-05T20:37:12.162Z,6.80
2019-04-05T20:39:40.601Z,6.70
2019-04-05T20:42:09.357Z,6.60
2019-04-05T20:44:37.816Z,6.50
2019-04-05T20:47:06.254Z,6.50
2019-04-05T20:49:38.466Z,6.40
2019-04-05T20:52:06.912Z,6.30
2019-04-05T20:54:35.332Z,6.30
2019-04-05T20:57:03.783Z,6.20
2019-04-05T20:59:32.228Z,6.10
2019-04-05T21:02:00.637Z,6.10
2019-04-05T21:04:29.080Z,6.00
2019-04-05T21:06:57.513Z,5.90
2019-04-05T21:09:25.971Z,5.90
2019-04-05T21:11:54.397Z,5.80
2019-04-05T21:14:22.830Z,5.70
2019-04-05T21:16:51.299Z,5.70
2019-04-05T21:19:19.725Z,5.70
2019-04-05T21:21:48.165Z,5.60
2019-04-05T21:24:16.611Z,5.50
2019-04-05T21:26:45.070Z,5.70
2019-04-05T21:29:13.511Z,5.80
2019-04-05T21:31:41.939Z,5.80
2019-04-05T21:34:10.389Z,5.80
2019-04-05T21:36:38.814Z,5.60
2019-04-05T21:39:07.719Z,5.70
2019-04-05T21:41:36.130Z,5.70
2019-04-05T21:44:04.641Z,5.60
2019-04-05T21:46:33.097Z,5.50
2019-04-05T21:49:01.795Z,5.50
2019-04-05T21:51:30.266Z,5.30
2019-04-05T21:53:58.680Z,5.20
2019-04-05T21:56:27.138Z,5.30
2019-04-05T21:58:55.550Z,5.20
2019-04-05T22:01:24.945Z,5.10
2019-04-05T22:03:53.362Z,5.10
2019-04-05T22:06:21.797Z,5.10
2019-04-05T22:08:50.226Z,5.00
2019-04-05T22:11:18.675Z,4.90
2019-04-05T22:13:47.119Z,5.00
2019-04-05T22:16:15.570Z,5.10
2019-04-05T22:18:44.002Z,5.20
2019-04-05T22:21:12.443Z,5.30
2019-04-05T22:23:40.895Z,5.30
2019-04-05T22:26:09.713Z,5.30
2019-04-05T22:28:38.128Z,5.20
2019-04-05T22:31:06.576Z,5.20
2019-04-05T22:33:35.003Z,5.20
2019-04-05T22:36:03.441Z,5.20
2019-04-05T22:38:31.882Z,5.10
2019-04-05T22:41:00.314Z,5.00
2019-04-05T22:43:30.283Z,5.00
2019-04-05T22:45:58.695Z,4.90
2019-04-05T22:48:27.182Z,4.90
2019-04-05T22:50:55.638Z,4.90
2019-04-05T22:53:24.073Z,4.80
2019-04-05T22:55:52.647Z,4.70
2019-04-05T22:58:21.075Z,4.70
2019-04-05T23:00:49.527Z,4.70
2019-04-05T23:03:17.951Z,4.80
2019-04-05T23:05:46.382Z,4.60
2019-04-05T23:08:14.833Z,4.60
2019-04-05T23:10:43.352Z,4.60
2019-04-05T23:13:11.801Z,4.50
2019-04-05T23:15:40.255Z,4.40
2019-04-05T23:18:08.686Z,4.30
2019-04-05T23:20:37.146Z,4.30
2019-04-05T23:23:05.588Z,4.20
2019-04-05T23:25:34.095Z,4.20
2019-04-05T23:28:02.526Z,4.20
2019-04-05T23:30:32.346Z,4.10
2019-04-05T23:33:00.770Z,4.20
2019-04-05T23:35:32.254Z,4.10
2019-04-05T23:38:00.691Z,4.20
2019-04-05T23:40:29.220Z,4.20
2019-04-05T23:42:57.647Z,4.20
2019-04-05T23:45:26.124Z,4.30
2019-04-05T23:47:54.638Z,4.20
2019-04-05T23:50:23.124Z,4.10
2019-04-05T23:52:51.564Z,4.10
2019-04-05T23:55:20.753Z,4.10
2019-04-05T23:57:49.203Z,4.00
